sensor_id;sensor_type;location;lat;lon;timestamp;pressure;altitude;pressure_sealevel;temperature;humidity
76746;BME280;65671;49.976;20.038;2022-12-07T00:01:29;97495.44;;;1.61;88.29
76746;BME280;65671;49.976;20.038;2022-12-07T00:03:56;97499.97;;;1.61;89.30
76746;BME280;65671;49.976;20.038;2022-12-07T00:06:26;97494.06;;;1.67;88.99
76746;BME280;65671;49.976;20.038;2022-12-07T00:08:51;97499.22;;;1.60;88.90
76746;BME280;65671;49.976;20.038;2022-12-07T00:11:19;97500.31;;;1.59;88.43
76746;BME280;65671;49.976;20.038;2022-12-07T00:13:46;97494.31;;;1.47;89.03
76746;BME280;65671;49.976;20.038;2022-12-07T00:16:16;97487.94;;;1.51;89.09
76746;BME280;65671;49.976;20.038;2022-12-07T00:18:43;97493.53;;;1.46;89.22
76746;BME280;65671;49.976;20.038;2022-12-07T00:23:40;97491.72;;;1.50;89.19
76746;BME280;65671;49.976;20.038;2022-12-07T00:26:10;97496.44;;;1.57;89.22
76746;BME280;65671;49.976;20.038;2022-12-07T00:28:36;97493.53;;;1.46;89.58
76746;BME280;65671;49.976;20.038;2022-12-07T00:31:10;97486.81;;;1.52;89.09
76746;BME280;65671;49.976;20.038;2022-12-07T00:33:36;97483.19;;;1.45;89.50
76746;BME280;65671;49.976;20.038;2022-12-07T00:36:04;97490.44;;;1.44;89.51
76746;BME280;65671;49.976;20.038;2022-12-07T00:38:32;97488.38;;;1.53;89.84
76746;BME280;65671;49.976;20.038;2022-12-07T00:41:00;97490.09;;;1.46;89.42
76746;BME280;65671;49.976;20.038;2022-12-07T00:43:26;97491.88;;;1.42;89.46
76746;BME280;65671;49.976;20.038;2022-12-07T00:45:53;97496.84;;;1.28;89.63
76746;BME280;65671;49.976;20.038;2022-12-07T00:48:20;97491.72;;;1.35;90.07
76746;BME280;65671;49.976;20.038;2022-12-07T00:50:45;97491.34;;;1.36;89.93
76746;BME280;65671;49.976;20.038;2022-12-07T00:53:11;97484.91;;;1.37;90.17
76746;BME280;65671;49.976;20.038;2022-12-07T00:55:37;97489.06;;;1.35;90.11
76746;BME280;65671;49.976;20.038;2022-12-07T00:58:03;97491.44;;;1.40;89.78
76746;BME280;65671;49.976;20.038;2022-12-07T01:00:29;97481.91;;;1.39;90.23
76746;BME280;65671;49.976;20.038;2022-12-07T01:02:55;97484.59;;;1.39;89.82
76746;BME280;65671;49.976;20.038;2022-12-07T01:05:20;97491.03;;;1.38;89.91
76746;BME280;65671;49.976;20.038;2022-12-07T01:07:46;97488.38;;;1.38;89.68
76746;BME280;65671;49.976;20.038;2022-12-07T01:10:12;97478.28;;;1.31;90.06
76746;BME280;65671;49.976;20.038;2022-12-07T01:12:39;97477.28;;;1.36;89.35
76746;BME280;65671;49.976;20.038;2022-12-07T01:15:05;97485.28;;;1.36;90.44
76746;BME280;65671;49.976;20.038;2022-12-07T01:17:30;97474.06;;;1.46;88.96
76746;BME280;65671;49.976;20.038;2022-12-07T01:20:03;97475.53;;;1.43;90.38
76746;BME280;65671;49.976;20.038;2022-12-07T01:22:28;97467.13;;;1.41;89.36
76746;BME280;65671;49.976;20.038;2022-12-07T01:24:54;97471.25;;;1.39;89.16
76746;BME280;65671;49.976;20.038;2022-12-07T01:27:19;97464.69;;;1.36;89.95
76746;BME280;65671;49.976;20.038;2022-12-07T01:29:45;97459.81;;;1.38;89.47
76746;BME280;65671;49.976;20.038;2022-12-07T01:32:10;97466.66;;;1.39;89.14
76746;BME280;65671;49.976;20.038;2022-12-07T01:34:35;97465.66;;;1.44;89.48
76746;BME280;65671;49.976;20.038;2022-12-07T01:37:01;97467.34;;;1.36;89.76
76746;BME280;65671;49.976;20.038;2022-12-07T01:39:26;97455.16;;;1.35;89.53
76746;BME280;65671;49.976;20.038;2022-12-07T01:41:52;97461.28;;;1.36;89.59
76746;BME280;65671;49.976;20.038;2022-12-07T01:44:25;97464.34;;;1.38;89.69
76746;BME280;65671;49.976;20.038;2022-12-07T01:46:54;97470.28;;;1.31;90.02
76746;BME280;65671;49.976;20.038;2022-12-07T01:51:58;97468.13;;;1.37;89.68
76746;BME280;65671;49.976;20.038;2022-12-07T01:54:26;97479.16;;;1.35;90.09
76746;BME280;65671;49.976;20.038;2022-12-07T01:56:54;97461.00;;;1.41;89.83
76746;BME280;65671;49.976;20.038;2022-12-07T01:59:24;97462.13;;;1.40;89.30
76746;BME280;65671;49.976;20.038;2022-12-07T02:01:52;97457.91;;;1.39;89.53
76746;BME280;65671;49.976;20.038;2022-12-07T02:04:19;97459.81;;;1.38;89.95
76746;BME280;65671;49.976;20.038;2022-12-07T02:06:45;97458.25;;;1.37;88.98
76746;BME280;65671;49.976;20.038;2022-12-07T02:09:11;97458.94;;;1.34;89.00
76746;BME280;65671;49.976;20.038;2022-12-07T02:11:38;97453.09;;;1.29;89.29
76746;BME280;65671;49.976;20.038;2022-12-07T02:14:03;97441.63;;;1.28;89.67
76746;BME280;65671;49.976;20.038;2022-12-07T02:16:44;97453.25;;;1.20;89.33
76746;BME280;65671;49.976;20.038;2022-12-07T02:28:04;97446.63;;;1.30;89.53
76746;BME280;65671;49.976;20.038;2022-12-07T02:30:34;97447.38;;;1.30;88.96
76746;BME280;65671;49.976;20.038;2022-12-07T02:35:51;97446.78;;;1.21;89.45
76746;BME280;65671;49.976;20.038;2022-12-07T02:38:30;97447.22;;;1.23;89.43
76746;BME280;65671;49.976;20.038;2022-12-07T02:43:35;97440.44;;;1.26;89.26
76746;BME280;65671;49.976;20.038;2022-12-07T02:46:22;97441.22;;;1.26;89.43
76746;BME280;65671;49.976;20.038;2022-12-07T02:48:50;97437.88;;;1.29;89.46
76746;BME280;65671;49.976;20.038;2022-12-07T02:51:18;97440.44;;;1.41;88.91
76746;BME280;65671;49.976;20.038;2022-12-07T02:53:44;97441.47;;;1.37;89.28
76746;BME280;65671;49.976;20.038;2022-12-07T02:56:16;97444.50;;;1.35;89.48
76746;BME280;65671;49.976;20.038;2022-12-07T03:01:30;97427.19;;;1.29;88.56
76746;BME280;65671;49.976;20.038;2022-12-07T03:06:50;97429.25;;;1.36;89.03
76746;BME280;65671;49.976;20.038;2022-12-07T03:09:36;97430.69;;;1.33;89.45
76746;BME280;65671;49.976;20.038;2022-12-07T03:12:12;97427.28;;;1.33;89.23
76746;BME280;65671;49.976;20.038;2022-12-07T03:14:46;97426.84;;;1.31;88.96
76746;BME280;65671;49.976;20.038;2022-12-07T03:17:27;97425.81;;;1.35;89.39
76746;BME280;65671;49.976;20.038;2022-12-07T03:19:58;97429.50;;;1.31;89.39
76746;BME280;65671;49.976;20.038;2022-12-07T03:22:29;97429.94;;;1.33;89.37
76746;BME280;65671;49.976;20.038;2022-12-07T03:24:58;97432.50;;;1.45;89.06
76746;BME280;65671;49.976;20.038;2022-12-07T03:27:30;97426.34;;;1.41;89.42
76746;BME280;65671;49.976;20.038;2022-12-07T03:30:07;97429.31;;;1.39;88.95
76746;BME280;65671;49.976;20.038;2022-12-07T03:32:52;97428.22;;;1.40;89.30
76746;BME280;65671;49.976;20.038;2022-12-07T03:35:28;97428.22;;;1.40;89.11
76746;BME280;65671;49.976;20.038;2022-12-07T03:38:04;97424.25;;;1.34;89.21
76746;BME280;65671;49.976;20.038;2022-12-07T03:40:40;97417.22;;;1.26;89.53
76746;BME280;65671;49.976;20.038;2022-12-07T03:43:09;97411.53;;;1.28;88.73
76746;BME280;65671;49.976;20.038;2022-12-07T03:45:45;97412.31;;;1.28;89.40
76746;BME280;65671;49.976;20.038;2022-12-07T03:48:24;97411.44;;;1.24;89.74
76746;BME280;65671;49.976;20.038;2022-12-07T03:51:18;97416.06;;;1.27;89.67
76746;BME280;65671;49.976;20.038;2022-12-07T03:56:35;97401.63;;;1.28;89.85
76746;BME280;65671;49.976;20.038;2022-12-07T03:59:01;97409.38;;;1.33;89.31
76746;BME280;65671;49.976;20.038;2022-12-07T04:01:26;97407.75;;;1.29;89.21
76746;BME280;65671;49.976;20.038;2022-12-07T04:03:52;97403.19;;;1.29;89.50
76746;BME280;65671;49.976;20.038;2022-12-07T04:06:17;97402.66;;;1.39;89.43
76746;BME280;65671;49.976;20.038;2022-12-07T04:08:43;97399.16;;;1.35;89.62
76746;BME280;65671;49.976;20.038;2022-12-07T04:11:08;97410.25;;;1.37;89.29
76746;BME280;65671;49.976;20.038;2022-12-07T04:13:34;97410.66;;;1.39;89.96
76746;BME280;65671;49.976;20.038;2022-12-07T04:16:22;97407.66;;;1.41;88.89
76746;BME280;65671;49.976;20.038;2022-12-07T04:18:47;97408.00;;;1.39;89.78
76746;BME280;65671;49.976;20.038;2022-12-07T04:21:12;97405.78;;;1.41;89.25
76746;BME280;65671;49.976;20.038;2022-12-07T04:23:38;97403.44;;;1.40;89.66
76746;BME280;65671;49.976;20.038;2022-12-07T04:26:03;97401.97;;;1.42;90.03
76746;BME280;65671;49.976;20.038;2022-12-07T04:28:29;97395.25;;;1.48;89.68
76746;BME280;65671;49.976;20.038;2022-12-07T04:30:54;97404.13;;;1.52;89.80
76746;BME280;65671;49.976;20.038;2022-12-07T04:33:19;97395.44;;;1.55;90.30
76746;BME280;65671;49.976;20.038;2022-12-07T04:35:45;97394.38;;;1.60;89.04
76746;BME280;65671;49.976;20.038;2022-12-07T04:38:10;97402.03;;;1.61;89.74
76746;BME280;65671;49.976;20.038;2022-12-07T04:40:36;97393.53;;;1.56;89.23
76746;BME280;65671;49.976;20.038;2022-12-07T04:43:01;97401.25;;;1.61;89.89
76746;BME280;65671;49.976;20.038;2022-12-07T04:45:26;97401.34;;;1.64;88.88
76746;BME280;65671;49.976;20.038;2022-12-07T04:47:52;97394.03;;;1.61;88.85
76746;BME280;65671;49.976;20.038;2022-12-07T04:50:17;97399.78;;;1.63;89.29
76746;BME280;65671;49.976;20.038;2022-12-07T04:52:43;97400.28;;;1.69;89.30
76746;BME280;65671;49.976;20.038;2022-12-07T04:55:08;97400.91;;;1.62;89.09
76746;BME280;65671;49.976;20.038;2022-12-07T04:57:34;97394.81;;;1.62;89.65
76746;BME280;65671;49.976;20.038;2022-12-07T04:59:59;97398.41;;;1.69;89.38
76746;BME280;65671;49.976;20.038;2022-12-07T05:02:24;97393.47;;;1.72;89.16
76746;BME280;65671;49.976;20.038;2022-12-07T05:04:50;97406.31;;;1.82;88.81
76746;BME280;65671;49.976;20.038;2022-12-07T05:07:15;97396.16;;;1.72;89.64
76746;BME280;65671;49.976;20.038;2022-12-07T05:09:40;97392.91;;;1.62;89.85
76746;BME280;65671;49.976;20.038;2022-12-07T05:12:06;97394.88;;;1.65;89.07
76746;BME280;65671;49.976;20.038;2022-12-07T05:14:31;97388.22;;;1.75;88.77
76746;BME280;65671;49.976;20.038;2022-12-07T05:16:57;97396.50;;;1.70;89.25
76746;BME280;65671;49.976;20.038;2022-12-07T05:19:22;97387.19;;;1.80;88.97
76746;BME280;65671;49.976;20.038;2022-12-07T05:21:48;97380.59;;;1.74;89.15
76746;BME280;65671;49.976;20.038;2022-12-07T05:24:15;97386.06;;;1.81;88.31
76746;BME280;65671;49.976;20.038;2022-12-07T05:26:41;97390.69;;;1.84;89.06
76746;BME280;65671;49.976;20.038;2022-12-07T05:29:06;97388.31;;;1.79;89.15
76746;BME280;65671;49.976;20.038;2022-12-07T05:31:32;97393.66;;;1.79;88.84
76746;BME280;65671;49.976;20.038;2022-12-07T05:33:58;97388.16;;;1.72;89.11
76746;BME280;65671;49.976;20.038;2022-12-07T05:36:23;97398.00;;;1.67;89.02
76746;BME280;65671;49.976;20.038;2022-12-07T05:38:48;97397.41;;;1.58;89.50
76746;BME280;65671;49.976;20.038;2022-12-07T05:41:16;97390.91;;;1.59;89.12
76746;BME280;65671;49.976;20.038;2022-12-07T05:44:00;97398.94;;;1.59;89.75
76746;BME280;65671;49.976;20.038;2022-12-07T05:46:26;97395.16;;;1.60;89.01
76746;BME280;65671;49.976;20.038;2022-12-07T05:48:51;97404.72;;;1.61;89.30
76746;BME280;65671;49.976;20.038;2022-12-07T05:51:17;97398.41;;;1.54;89.64
76746;BME280;65671;49.976;20.038;2022-12-07T05:53:44;97402.13;;;1.49;89.90
76746;BME280;65671;49.976;20.038;2022-12-07T05:56:09;97398.50;;;1.57;89.60
76746;BME280;65671;49.976;20.038;2022-12-07T05:58:35;97399.88;;;1.51;89.60
76746;BME280;65671;49.976;20.038;2022-12-07T06:01:19;97397.50;;;1.46;89.41
76746;BME280;65671;49.976;20.038;2022-12-07T06:03:44;97399.88;;;1.51;89.88
76746;BME280;65671;49.976;20.038;2022-12-07T06:06:11;97403.69;;;1.50;89.64
76746;BME280;65671;49.976;20.038;2022-12-07T06:08:37;97403.63;;;1.47;90.71
76746;BME280;65671;49.976;20.038;2022-12-07T06:11:02;97405.41;;;1.43;90.69
76746;BME280;65671;49.976;20.038;2022-12-07T06:13:46;97412.41;;;1.47;90.37
76746;BME280;65671;49.976;20.038;2022-12-07T06:16:11;97409.63;;;1.44;90.69
76746;BME280;65671;49.976;20.038;2022-12-07T06:18:37;97407.06;;;1.32;92.05
76746;BME280;65671;49.976;20.038;2022-12-07T06:21:02;97408.53;;;1.29;91.62
76746;BME280;65671;49.976;20.038;2022-12-07T06:23:28;97412.13;;;1.37;91.11
76746;BME280;65671;49.976;20.038;2022-12-07T06:25:53;97422.28;;;1.31;91.73
76746;BME280;65671;49.976;20.038;2022-12-07T06:28:19;97418.84;;;1.31;91.11
76746;BME280;65671;49.976;20.038;2022-12-07T06:30:44;97416.25;;;1.19;91.26
76746;BME280;65671;49.976;20.038;2022-12-07T06:33:09;97418.22;;;1.22;90.80
76746;BME280;65671;49.976;20.038;2022-12-07T06:35:35;97422.63;;;1.14;90.65
76746;BME280;65671;49.976;20.038;2022-12-07T06:38:01;97420.13;;;1.21;90.93
76746;BME280;65671;49.976;20.038;2022-12-07T06:40:27;97418.22;;;1.22;90.11
76746;BME280;65671;49.976;20.038;2022-12-07T06:42:52;97413.69;;;1.22;90.52
76746;BME280;65671;49.976;20.038;2022-12-07T06:45:17;97414.63;;;1.14;90.57
76746;BME280;65671;49.976;20.038;2022-12-07T06:47:43;97414.13;;;1.08;90.62
76746;BME280;65671;49.976;20.038;2022-12-07T06:50:08;97431.31;;;1.11;89.86
76746;BME280;65671;49.976;20.038;2022-12-07T06:52:34;97421.75;;;1.10;90.56
76746;BME280;65671;49.976;20.038;2022-12-07T06:54:59;97439.31;;;1.11;90.30
76746;BME280;65671;49.976;20.038;2022-12-07T06:57:25;97431.81;;;1.01;89.38
76746;BME280;65671;49.976;20.038;2022-12-07T06:59:51;97436.44;;;1.04;91.12
76746;BME280;65671;49.976;20.038;2022-12-07T07:02:16;97436.91;;;1.06;90.36
76746;BME280;65671;49.976;20.038;2022-12-07T07:04:43;97428.72;;;0.99;90.32
76746;BME280;65671;49.976;20.038;2022-12-07T07:07:08;97437.41;;;0.96;90.16
76746;BME280;65671;49.976;20.038;2022-12-07T07:09:34;97439.03;;;0.85;90.00
76746;BME280;65671;49.976;20.038;2022-12-07T07:11:59;97441.59;;;0.81;90.87
76746;BME280;65671;49.976;20.038;2022-12-07T07:14:25;97442.00;;;0.83;91.11
76746;BME280;65671;49.976;20.038;2022-12-07T07:16:50;97441.94;;;0.95;90.93
76746;BME280;65671;49.976;20.038;2022-12-07T07:19:16;97435.47;;;0.81;90.58
76746;BME280;65671;49.976;20.038;2022-12-07T07:21:44;97447.53;;;0.90;90.51
76746;BME280;65671;49.976;20.038;2022-12-07T07:24:10;97447.38;;;0.99;90.23
76746;BME280;65671;49.976;20.038;2022-12-07T07:26:36;97451.09;;;0.94;90.48
76746;BME280;65671;49.976;20.038;2022-12-07T07:29:01;97447.38;;;0.99;90.12
76746;BME280;65671;49.976;20.038;2022-12-07T07:31:27;97435.84;;;0.95;90.01
76746;BME280;65671;49.976;20.038;2022-12-07T07:33:52;97447.38;;;0.99;90.64
76746;BME280;65671;49.976;20.038;2022-12-07T07:36:17;97445.56;;;0.87;90.85
76746;BME280;65671;49.976;20.038;2022-12-07T07:38:43;97445.06;;;0.97;90.58
76746;BME280;65671;49.976;20.038;2022-12-07T07:41:08;97446.75;;;0.90;90.30
76746;BME280;65671;49.976;20.038;2022-12-07T07:43:34;97444.97;;;0.94;90.49
76746;BME280;65671;49.976;20.038;2022-12-07T07:45:59;97435.94;;;0.98;90.44
76746;BME280;65671;49.976;20.038;2022-12-07T07:48:25;97434.22;;;0.90;90.86
76746;BME280;65671;49.976;20.038;2022-12-07T07:50:51;97442.88;;;0.87;89.98
76746;BME280;65671;49.976;20.038;2022-12-07T07:53:16;97437.97;;;0.89;90.53
76746;BME280;65671;49.976;20.038;2022-12-07T07:55:53;97445.50;;;0.99;90.90
76746;BME280;65671;49.976;20.038;2022-12-07T07:58:19;97446.69;;;1.02;90.32
76746;BME280;65671;49.976;20.038;2022-12-07T08:00:45;97445.31;;;1.08;89.78
76746;BME280;65671;49.976;20.038;2022-12-07T08:03:10;97448.47;;;0.98;90.45
76746;BME280;65671;49.976;20.038;2022-12-07T08:05:37;97448.16;;;0.99;90.31
76746;BME280;65671;49.976;20.038;2022-12-07T08:08:02;97455.38;;;0.99;90.22
76746;BME280;65671;49.976;20.038;2022-12-07T08:10:28;97457.25;;;0.98;90.02
76746;BME280;65671;49.976;20.038;2022-12-07T08:12:53;97458.47;;;1.01;90.08
76746;BME280;65671;49.976;20.038;2022-12-07T08:15:44;97461.13;;;1.01;90.85
76746;BME280;65671;49.976;20.038;2022-12-07T08:18:10;97468.34;;;1.00;90.15
76746;BME280;65671;49.976;20.038;2022-12-07T08:20:37;97467.44;;;1.08;90.71
76746;BME280;65671;49.976;20.038;2022-12-07T08:23:03;97470.69;;;1.02;91.11
76746;BME280;65671;49.976;20.038;2022-12-07T08:25:28;97473.53;;;1.09;90.45
76746;BME280;65671;49.976;20.038;2022-12-07T08:27:54;97476.63;;;1.11;90.39
76746;BME280;65671;49.976;20.038;2022-12-07T08:30:20;97467.06;;;0.94;90.19
76746;BME280;65671;49.976;20.038;2022-12-07T08:32:46;97470.31;;;1.03;89.89
76746;BME280;65671;49.976;20.038;2022-12-07T08:35:13;97472.66;;;1.05;90.69
76746;BME280;65671;49.976;20.038;2022-12-07T08:37:39;97479.47;;;1.02;90.24
76746;BME280;65671;49.976;20.038;2022-12-07T08:40:05;97474.50;;;1.17;90.78
76746;BME280;65671;49.976;20.038;2022-12-07T08:42:31;97472.34;;;1.22;89.66
76746;BME280;65671;49.976;20.038;2022-12-07T08:45:14;97473.13;;;1.23;89.83
76746;BME280;65671;49.976;20.038;2022-12-07T08:48:01;97477.25;;;1.20;90.47
76746;BME280;65671;49.976;20.038;2022-12-07T08:50:29;97473.13;;;1.23;89.71
76746;BME280;65671;49.976;20.038;2022-12-07T08:52:57;97481.38;;;1.33;89.77
76746;BME280;65671;49.976;20.038;2022-12-07T08:55:23;97483.09;;;1.26;89.84
76746;BME280;65671;49.976;20.038;2022-12-07T08:57:49;97474.00;;;1.27;89.63
76746;BME280;65671;49.976;20.038;2022-12-07T09:00:15;97486.56;;;1.26;89.68
76746;BME280;65671;49.976;20.038;2022-12-07T09:02:43;97483.34;;;1.36;89.98
76746;BME280;65671;49.976;20.038;2022-12-07T09:05:10;97491.88;;;1.42;90.43
76746;BME280;65671;49.976;20.038;2022-12-07T09:07:35;97489.66;;;1.59;89.54
76746;BME280;65671;49.976;20.038;2022-12-07T09:10:02;97493.09;;;1.44;89.21
76746;BME280;65671;49.976;20.038;2022-12-07T09:12:28;97474.50;;;1.48;89.58
76746;BME280;65671;49.976;20.038;2022-12-07T09:14:54;97486.47;;;1.54;89.76
76746;BME280;65671;49.976;20.038;2022-12-07T09:17:19;97492.41;;;1.47;88.60
76746;BME280;65671;49.976;20.038;2022-12-07T09:19:44;97484.47;;;1.51;89.88
76746;BME280;65671;49.976;20.038;2022-12-07T09:22:10;97480.19;;;1.46;89.15
76746;BME280;65671;49.976;20.038;2022-12-07T09:24:36;97483.88;;;1.57;89.64
76746;BME280;65671;49.976;20.038;2022-12-07T09:27:01;97482.94;;;1.65;88.79
76746;BME280;65671;49.976;20.038;2022-12-07T09:29:27;97477.34;;;1.71;88.87
76746;BME280;65671;49.976;20.038;2022-12-07T09:31:52;97470.19;;;1.75;88.97
76746;BME280;65671;49.976;20.038;2022-12-07T09:34:18;97474.91;;;1.65;87.24
76746;BME280;65671;49.976;20.038;2022-12-07T09:36:44;97468.75;;;1.77;88.58
76746;BME280;65671;49.976;20.038;2022-12-07T09:39:09;97462.34;;;1.66;88.49
76746;BME280;65671;49.976;20.038;2022-12-07T09:41:39;97468.28;;;1.75;88.46
76746;BME280;65671;49.976;20.038;2022-12-07T09:44:11;97459.88;;;1.73;88.44
76746;BME280;65671;49.976;20.038;2022-12-07T09:46:40;97464.34;;;1.69;87.65
76746;BME280;65671;49.976;20.038;2022-12-07T09:49:18;97458.91;;;1.65;87.98
76746;BME280;65671;49.976;20.038;2022-12-07T09:51:44;97472.09;;;1.74;87.66
76746;BME280;65671;49.976;20.038;2022-12-07T09:54:15;97468.75;;;1.77;87.50
76746;BME280;65671;49.976;20.038;2022-12-07T09:56:42;97469.25;;;1.67;88.09
76746;BME280;65671;49.976;20.038;2022-12-07T09:59:15;97463.06;;;1.63;87.90
76746;BME280;65671;49.976;20.038;2022-12-07T10:01:42;97461.34;;;1.71;87.60
76746;BME280;65671;49.976;20.038;2022-12-07T10:04:21;97465.03;;;1.66;88.51
76746;BME280;65671;49.976;20.038;2022-12-07T10:06:47;97465.38;;;1.64;88.74
76746;BME280;65671;49.976;20.038;2022-12-07T10:09:14;97463.69;;;1.56;88.89
76746;BME280;65671;49.976;20.038;2022-12-07T10:12:10;97458.94;;;1.50;89.22
76746;BME280;65671;49.976;20.038;2022-12-07T10:15:00;97456.28;;;1.50;89.03
76746;BME280;65671;49.976;20.038;2022-12-07T10:17:41;97451.59;;;1.62;88.18
76746;BME280;65671;49.976;20.038;2022-12-07T10:20:19;97456.78;;;1.71;87.96
76746;BME280;65671;49.976;20.038;2022-12-07T10:22:55;97449.97;;;1.74;88.75
76746;BME280;65671;49.976;20.038;2022-12-07T10:25:23;97457.50;;;1.87;88.79
76746;BME280;65671;49.976;20.038;2022-12-07T10:31:02;97449.28;;;1.77;88.50
76746;BME280;65671;49.976;20.038;2022-12-07T10:33:37;97446.94;;;1.75;87.76
76746;BME280;65671;49.976;20.038;2022-12-07T10:36:25;97442.59;;;1.86;89.07
76746;BME280;65671;49.976;20.038;2022-12-07T10:39:14;97439.59;;;1.88;88.79
76746;BME280;65671;49.976;20.038;2022-12-07T10:42:15;97431.81;;;1.98;88.02
76746;BME280;65671;49.976;20.038;2022-12-07T10:44:41;97441.19;;;2.08;88.46
76746;BME280;65671;49.976;20.038;2022-12-07T10:47:22;97434.28;;;2.07;87.81
76746;BME280;65671;49.976;20.038;2022-12-07T10:50:06;97436.78;;;2.15;87.13
76746;BME280;65671;49.976;20.038;2022-12-07T10:55:45;97423.38;;;2.31;85.37
76746;BME280;65671;49.976;20.038;2022-12-07T11:06:17;97424.88;;;2.13;86.26
76746;BME280;65671;49.976;20.038;2022-12-07T11:12:02;97414.22;;;2.32;87.22
76746;BME280;65671;49.976;20.038;2022-12-07T11:14:48;97409.47;;;2.41;86.68
76746;BME280;65671;49.976;20.038;2022-12-07T11:23:09;97407.59;;;2.45;85.54
76746;BME280;65671;49.976;20.038;2022-12-07T11:38:57;97408.50;;;2.72;84.25
76746;BME280;65671;49.976;20.038;2022-12-07T11:41:28;97404.38;;;2.74;84.19
76746;BME280;65671;49.976;20.038;2022-12-07T11:44:01;97389.75;;;2.68;83.87
76746;BME280;65671;49.976;20.038;2022-12-07T11:46:54;97403.28;;;2.79;84.08
76746;BME280;65671;49.976;20.038;2022-12-07T11:49:47;97394.91;;;2.80;83.51
76746;BME280;65671;49.976;20.038;2022-12-07T11:52:44;97393.78;;;2.81;82.17
76746;BME280;65671;49.976;20.038;2022-12-07T11:58:21;97391.09;;;3.01;81.42
76746;BME280;65671;49.976;20.038;2022-12-07T12:01:07;97392.91;;;2.97;81.77
76746;BME280;65671;49.976;20.038;2022-12-07T12:03:41;97397.97;;;3.02;82.40
76746;BME280;65671;49.976;20.038;2022-12-07T12:06:11;97394.50;;;3.01;82.02
76746;BME280;65671;49.976;20.038;2022-12-07T12:08:38;97394.16;;;3.03;83.70
76746;BME280;65671;49.976;20.038;2022-12-07T12:19:41;97380.69;;;3.18;82.00
76746;BME280;65671;49.976;20.038;2022-12-07T12:22:18;97374.50;;;3.14;82.19
76746;BME280;65671;49.976;20.038;2022-12-07T12:24:49;97378.66;;;3.12;80.55
76746;BME280;65671;49.976;20.038;2022-12-07T12:29:54;97367.13;;;3.08;80.19
76746;BME280;65671;49.976;20.038;2022-12-07T12:32:23;97368.53;;;3.02;79.94
76746;BME280;65671;49.976;20.038;2022-12-07T12:35:00;97370.16;;;3.06;80.13
76746;BME280;65671;49.976;20.038;2022-12-07T12:42:48;97364.81;;;3.06;77.27
76746;BME280;65671;49.976;20.038;2022-12-07T12:57:35;97369.16;;;2.92;77.71
76746;BME280;65671;49.976;20.038;2022-12-07T13:00:16;97359.16;;;2.89;76.29
76746;BME280;65671;49.976;20.038;2022-12-07T13:02:53;97369.56;;;2.71;77.13
76746;BME280;65671;49.976;20.038;2022-12-07T13:05:22;97376.44;;;2.72;76.16
76746;BME280;65671;49.976;20.038;2022-12-07T13:08:19;97369.47;;;2.67;76.64
76746;BME280;65671;49.976;20.038;2022-12-07T13:10:45;97364.84;;;2.64;76.33
76746;BME280;65671;49.976;20.038;2022-12-07T13:15:46;97368.16;;;2.58;75.17
76746;BME280;65671;49.976;20.038;2022-12-07T13:18:37;97370.06;;;2.57;75.53
76746;BME280;65671;49.976;20.038;2022-12-07T13:23:58;97368.88;;;2.55;76.69
76746;BME280;65671;49.976;20.038;2022-12-07T13:29:15;97361.41;;;2.64;75.48
76746;BME280;65671;49.976;20.038;2022-12-07T13:31:49;97367.53;;;2.64;76.17
76746;BME280;65671;49.976;20.038;2022-12-07T13:34:36;97371.31;;;2.63;75.32
76746;BME280;65671;49.976;20.038;2022-12-07T13:39:50;97368.88;;;2.55;76.14
76746;BME280;65671;49.976;20.038;2022-12-07T13:42:25;97369.63;;;2.55;77.07
76746;BME280;65671;49.976;20.038;2022-12-07T13:44:51;97369.50;;;2.48;77.74
76746;BME280;65671;49.976;20.038;2022-12-07T13:49:48;97380.28;;;2.33;78.05
76746;BME280;65671;49.976;20.038;2022-12-07T13:52:24;97377.31;;;2.38;77.13
76746;BME280;65671;49.976;20.038;2022-12-07T13:54:57;97389.97;;;2.41;78.25
76746;BME280;65671;49.976;20.038;2022-12-07T13:57:25;97392.66;;;2.41;77.64
76746;BME280;65671;49.976;20.038;2022-12-07T13:59:52;97391.03;;;2.36;77.22
76746;BME280;65671;49.976;20.038;2022-12-07T14:02:26;97396.56;;;2.28;79.25
76746;BME280;65671;49.976;20.038;2022-12-07T14:05:15;97393.56;;;2.29;76.66
76746;BME280;65671;49.976;20.038;2022-12-07T14:08:20;97396.44;;;2.40;77.09
76746;BME280;65671;49.976;20.038;2022-12-07T14:13:35;97394.84;;;2.35;78.06
76746;BME280;65671;49.976;20.038;2022-12-07T14:16:13;97397.00;;;2.30;78.10
76746;BME280;65671;49.976;20.038;2022-12-07T14:18:43;97390.63;;;2.15;78.11
76746;BME280;65671;49.976;20.038;2022-12-07T14:23:34;97390.75;;;2.03;78.92
76746;BME280;65671;49.976;20.038;2022-12-07T14:26:07;97395.22;;;1.99;78.37
76746;BME280;65671;49.976;20.038;2022-12-07T14:28:35;97401.25;;;1.96;78.79
76746;BME280;65671;49.976;20.038;2022-12-07T14:31:02;97398.50;;;1.92;78.27
76746;BME280;65671;49.976;20.038;2022-12-07T14:33:28;97406.09;;;1.90;78.34
76746;BME280;65671;49.976;20.038;2022-12-07T14:35:54;97400.25;;;1.85;77.61
76746;BME280;65671;49.976;20.038;2022-12-07T14:38:21;97410.53;;;1.83;78.81
76746;BME280;65671;49.976;20.038;2022-12-07T14:40:47;97411.13;;;1.76;78.43
76746;BME280;65671;49.976;20.038;2022-12-07T14:43:15;97407.41;;;1.81;78.45
76746;BME280;65671;49.976;20.038;2022-12-07T14:45:42;97412.44;;;1.66;79.32
76746;BME280;65671;49.976;20.038;2022-12-07T14:48:10;97412.03;;;1.64;79.66
76746;BME280;65671;49.976;20.038;2022-12-07T14:50:39;97401.44;;;1.68;79.52
76746;BME280;65671;49.976;20.038;2022-12-07T14:53:34;97402.03;;;1.61;80.04
76746;BME280;65671;49.976;20.038;2022-12-07T14:56:01;97407.38;;;1.61;79.01
76746;BME280;65671;49.976;20.038;2022-12-07T14:58:26;97391.50;;;1.68;79.21
76746;BME280;65671;49.976;20.038;2022-12-07T15:00:52;97396.16;;;1.72;78.11
76746;BME280;65671;49.976;20.038;2022-12-07T15:03:17;97403.03;;;1.73;78.78
76746;BME280;65671;49.976;20.038;2022-12-07T15:05:43;97396.16;;;1.72;79.08
76746;BME280;65671;49.976;20.038;2022-12-07T15:08:09;97395.03;;;1.73;78.24